Time;durP1;ratioP1;P1;durP2;ratioP2;P2;SDS_P1;SDS_P2;PMS_P1;PMS_P2;Temp;Humidity;BMP_temperature;BMP_pressure;BME280_temperature;BME280_humidity;BME280_pressure;Samples;Min_cycle;Max_cycle;Signal;HPM_P1;HPM_P2
2022/03/28 00:04:12;;;;;;;29.02;13.57;;;;;;;5.71;100.00;102837.53;10386989;28;20034;-68
2022/03/28 00:09:12;;;;;;;20.98;13.20;;;;;;;5.67;100.00;102827.97;10372479;28;20061;-68
2022/03/28 00:14:13;;;;;;;26.00;13.50;;;;;;;5.62;100.00;102823.03;10367999;28;20052;-69
2022/03/28 00:19:13;;;;;;;28.88;14.85;;;;;;;5.63;100.00;102826.63;10387387;28;20154;-68
2022/03/28 00:24:14;;;;;;;25.77;14.30;;;;;;;5.67;100.00;102827.97;10371012;28;20030;-69
2022/03/28 00:29:14;;;;;;;24.85;12.38;;;;;;;5.65;100.00;102825.41;10387322;28;20064;-69
2022/03/28 00:34:15;;;;;;;19.80;11.63;;;;;;;5.61;100.00;102812.28;10371709;28;20022;-69
2022/03/28 00:39:16;;;;;;;19.30;10.90;;;;;;;5.27;100.00;102750.50;10395197;28;20052;-69
2022/03/28 00:44:18;;;;;;;20.13;11.90;;;;;;;5.58;100.00;102790.75;10370900;28;20030;-69
2022/03/28 00:49:18;;;;;;;22.75;12.45;;;;;;;5.53;100.00;102776.78;10386995;28;20125;-69
2022/03/28 00:54:19;;;;;;;18.95;11.80;;;;;;;5.26;100.00;102732.44;10370655;28;20482;-69
2022/03/28 00:59:19;;;;;;;20.30;11.82;;;;;;;5.50;100.00;102788.03;10390174;28;20034;-69
2022/03/28 01:04:20;;;;;;;23.17;12.98;;;;;;;5.47;100.00;102773.69;10410606;28;20041;-68
2022/03/28 01:09:20;;;;;;;27.13;13.43;;;;;;;5.53;100.00;102771.31;10411839;28;20124;-68
2022/03/28 01:14:21;;;;;;;25.70;14.27;;;;;;;5.61;100.00;102774.03;10395111;28;20065;-69
2022/03/28 01:19:23;;;;;;;30.73;15.95;;;;;;;5.55;100.00;102748.25;10394675;28;20033;-70
2022/03/28 01:24:23;;;;;;;27.60;13.82;;;;;;;5.58;100.00;102752.50;10410860;28;20101;-70
2022/03/28 01:29:25;;;;;;;23.85;12.65;;;;;;;5.59;100.00;102738.66;10352343;28;20033;-70
2022/03/28 01:34:25;;;;;;;24.77;12.48;;;;;;;5.60;100.00;102750.44;10353984;28;20040;-70
2022/03/28 01:39:26;;;;;;;23.75;13.02;;;;;;;5.46;100.00;102716.53;10374632;28;20351;-70
2022/03/28 01:44:26;;;;;;;26.58;13.20;;;;;;;5.56;100.00;102738.16;10402134;28;20084;-70
2022/03/28 01:49:27;;;;;;;22.33;11.98;;;;;;;5.42;100.00;102713.28;10418150;28;20030;-70
2022/03/28 01:54:27;;;;;;;18.98;10.23;;;;;;;5.45;100.00;102729.31;10418028;28;20053;-70
2022/03/28 01:59:28;;;;;;;19.25;10.40;;;;;;;5.24;100.00;102690.81;10391321;28;20030;-70
2022/03/28 02:04:28;;;;;;;20.48;9.68;;;;;;;5.29;100.00;102702.03;10394636;28;20335;-69
2022/03/28 02:09:29;;;;;;;16.98;9.80;;;;;;;5.29;100.00;102709.38;10377264;28;20464;-69
2022/03/28 02:14:29;;;;;;;21.45;11.45;;;;;;;5.33;100.00;102716.19;10361369;28;20042;-70
2022/03/28 02:19:30;;;;;;;15.73;9.80;;;;;;;5.30;100.00;102708.38;10344755;28;20544;-70
2022/03/28 02:24:31;;;;;;;22.50;11.20;;;;;;;5.31;100.00;102697.25;10359712;28;20041;-70
2022/03/28 02:29:31;;;;;;;16.38;9.35;;;;;;;5.34;100.00;102705.13;10415575;28;20446;-70
2022/03/28 02:34:32;;;;;;;14.32;9.02;;;;;;;5.37;100.00;102690.25;10434416;28;20017;-69
2022/03/28 02:39:32;;;;;;;19.30;10.23;;;;;;;5.34;100.00;102685.16;10400401;28;20025;-70
2022/03/28 02:44:33;;;;;;;17.38;9.60;;;;;;;5.41;100.00;102695.19;10399822;28;20029;-69
2022/03/28 02:49:33;;;;;;;19.60;10.32;;;;;;;5.35;100.00;102681.38;10403369;28;20057;-70
2022/03/28 02:54:34;;;;;;;16.98;9.95;;;;;;;5.30;100.00;102662.78;10358404;28;20490;-70
2022/03/28 02:59:34;;;;;;;20.60;9.68;;;;;;;5.10;100.00;102612.34;10383220;28;20034;-69
2022/03/28 03:04:35;;;;;;;20.95;12.25;;;;;;;5.47;100.00;102664.44;10415283;28;20033;-70
2022/03/28 03:09:35;;;;;;;20.27;11.25;;;;;;;5.44;100.00;102653.03;10376889;28;20041;-69
2022/03/28 03:14:36;;;;;;;23.95;11.73;;;;;;;5.44;100.00;102653.03;10373861;28;20054;-69
2022/03/28 03:19:39;;;;;;;17.35;9.88;;;;;;;5.34;100.00;102642.28;10373837;28;20041;-69
2022/03/28 03:24:41;;;;;;;19.83;10.93;;;;;;;5.30;100.00;102635.47;10358321;28;20045;-69
2022/03/28 03:29:41;;;;;;;19.80;10.57;;;;;;;5.26;100.00;102624.06;10380010;28;20022;-69
2022/03/28 03:34:42;;;;;;;19.58;11.50;;;;;;;5.35;100.00;102643.13;10414477;28;20029;-69
2022/03/28 03:39:42;;;;;;;17.98;10.80;;;;;;;5.35;100.00;102637.69;10414541;28;20030;-70
2022/03/28 03:44:43;;;;;;;23.42;11.63;;;;;;;5.28;100.00;102631.22;10397531;28;20041;-69
2022/03/28 03:49:43;;;;;;;23.20;12.02;;;;;;;5.32;100.00;102627.97;10371829;28;20029;-69
2022/03/28 03:54:44;;;;;;;22.65;10.88;;;;;;;5.33;100.00;102623.34;10388054;28;20037;-69
2022/03/28 03:59:44;;;;;;;20.38;10.68;;;;;;;4.82;100.00;102522.72;10365036;28;20037;-70
2022/03/28 04:04:45;;;;;;;20.30;10.30;;;;;;;5.32;100.00;102613.47;10428551;28;20041;-69
2022/03/28 04:09:45;;;;;;;23.73;9.77;;;;;;;5.27;100.00;102597.59;10413153;28;20039;-69
2022/03/28 04:14:46;;;;;;;20.98;9.48;;;;;;;5.25;100.00;102599.69;10428994;28;20108;-70
2022/03/28 04:19:46;;;;;;;22.70;9.02;;;;;;;5.23;100.00;102601.72;10428228;28;20067;-69
2022/03/28 04:24:47;;;;;;;17.65;9.07;;;;;;;5.20;100.00;102594.72;10412056;28;20033;-69
2022/03/28 04:29:47;;;;;;;16.75;7.57;;;;;;;5.16;100.00;102584.34;10400930;28;20045;-70
2022/03/28 04:34:49;;;;;;;17.35;7.80;;;;;;;5.09;100.00;102577.88;10388688;28;20029;-69
2022/03/28 04:39:49;;;;;;;17.98;8.98;;;;;;;5.24;100.00;102603.41;10372449;28;20026;-69
2022/03/28 04:44:50;;;;;;;13.77;7.47;;;;;;;5.20;100.00;102594.72;10388446;28;20041;-69
2022/03/28 04:49:50;;;;;;;13.60;6.93;;;;;;;5.24;100.00;102597.94;10370684;28;20061;-70
2022/03/28 04:54:51;;;;;;;14.48;7.45;;;;;;;5.09;100.00;102580.63;10354217;28;20046;-70
2022/03/28 04:59:52;;;;;;;13.43;6.07;;;;;;;5.07;100.00;102590.88;10369834;28;20053;-70
2022/03/28 05:04:52;;;;;;;16.95;6.13;;;;;;;5.01;100.00;102585.06;10371607;28;20069;-70
2022/03/28 05:09:53;;;;;;;10.40;4.80;;;;;;;4.99;100.00;102576.19;10387678;28;20041;-70
2022/03/28 05:14:54;;;;;;;9.23;5.05;;;;;;;4.75;100.00;102543.50;10359311;28;20053;-70
2022/03/28 05:19:55;;;;;;;10.45;4.43;;;;;;;4.81;100.00;102561.91;10390097;28;20029;-70
2022/03/28 05:24:56;;;;;;;9.30;4.85;;;;;;;4.92;100.00;102579.78;10401832;28;20037;-70
2022/03/28 05:29:58;;;;;;;9.40;4.00;;;;;;;4.79;100.00;102559.34;10375891;28;20036;-70
2022/03/28 05:34:59;;;;;;;11.13;4.38;;;;;;;4.82;100.00;102550.00;10394065;28;20042;-69
2022/03/28 05:39:59;;;;;;;10.18;4.63;;;;;;;4.84;100.00;102558.84;10377710;28;20084;-70
2022/03/28 05:45:00;;;;;;;12.95;4.40;;;;;;;4.83;100.00;102552.53;10361292;28;20033;-70
2022/03/28 05:50:01;;;;;;;9.65;4.85;;;;;;;4.84;100.00;102548.78;10361295;28;20030;-70
2022/03/28 05:55:01;;;;;;;13.43;4.85;;;;;;;4.88;100.00;102549.28;10395115;28;20030;-70
2022/03/28 06:00:04;;;;;;;10.23;4.93;;;;;;;4.86;100.00;102554.06;10371891;28;20037;-70
2022/03/28 06:05:05;;;;;;;9.48;5.00;;;;;;;4.88;100.00;102543.84;10401474;28;20072;-69
2022/03/28 06:10:06;;;;;;;12.38;5.72;;;;;;;4.85;100.00;102544.16;10400969;28;20069;-70
2022/03/28 06:15:07;;;;;;;9.23;4.25;;;;;;;4.75;100.00;102538.06;10400478;28;20038;-70
2022/03/28 06:20:08;;;;;;;8.88;4.80;;;;;;;4.82;100.00;102544.53;10383074;28;20045;-70
2022/03/28 06:25:09;;;;;;;10.13;6.03;;;;;;;4.91;100.00;102543.47;10432535;28;20029;-70
2022/03/28 06:30:11;;;;;;;11.48;6.18;;;;;;;4.62;100.00;102484.91;10414835;28;20060;-69
2022/03/28 06:35:12;;;;;;;11.05;5.72;;;;;;;5.01;100.00;102538.66;10416716;28;20104;-69
2022/03/28 06:40:12;;;;;;;16.98;7.05;;;;;;;5.03;100.00;102531.16;10432666;28;20033;-69
2022/03/28 06:45:13;;;;;;;15.77;7.82;;;;;;;5.08;100.00;102536.06;10383257;28;20064;-69
2022/03/28 06:50:14;;;;;;;16.25;7.90;;;;;;;5.12;100.00;102542.03;10416034;28;20047;-69
2022/03/28 06:55:14;;;;;;;15.90;7.90;;;;;;;4.99;100.00;102524.34;10402282;28;20115;-69
2022/03/28 07:00:15;;;;;;;17.40;8.95;;;;;;;5.11;100.00;102532.16;10357786;28;20030;-69
2022/03/28 07:05:16;;;;;;;17.67;8.23;;;;;;;5.21;100.00;102519.13;10374492;28;20128;-70
2022/03/28 07:10:18;;;;;;;19.45;9.50;;;;;;;5.28;100.00;102513.81;10375181;28;20026;-69
2022/03/28 07:15:19;;;;;;;14.13;6.53;;;;;;;5.38;100.00;102496.16;10390882;28;20053;-70
2022/03/28 07:20:23;;;;;;;12.50;5.65;;;;;;;5.40;100.00;102493.25;10390650;28;20046;-71
2022/03/28 07:25:24;;;;;;;9.90;5.93;;;;;;;5.61;100.00;102495.31;10356950;28;20046;-69
2022/03/28 07:30:25;;;;;;;10.32;5.20;;;;;;;5.56;100.00;102475.88;10374356;28;20034;-69
2022/03/28 07:35:25;;;;;;;11.48;3.90;;;;;;;5.70;100.00;102496.13;10373357;28;20142;-69
2022/03/28 07:40:26;;;;;;;7.95;3.63;;;;;;;5.86;100.00;102485.91;10372598;28;20450;-69
2022/03/28 07:45:26;;;;;;;10.77;4.45;;;;;;;5.96;100.00;102473.91;10356346;28;20038;-68
2022/03/28 07:50:27;;;;;;;8.18;4.50;;;;;;;6.00;100.00;102467.88;10388141;28;20477;-70
2022/03/28 07:55:28;;;;;;;7.07;3.95;;;;;;;6.11;100.00;102468.47;10407780;28;20033;-69
2022/03/28 08:00:29;;;;;;;8.93;4.55;;;;;;;6.08;100.00;102458.75;10374851;28;20042;-69
2022/03/28 08:05:29;;;;;;;8.40;5.53;;;;;;;6.29;100.00;102470.88;10389944;28;20033;-70
2022/03/28 08:10:30;;;;;;;7.07;4.32;;;;;;;6.31;100.00;102455.97;10384027;28;20240;-70
2022/03/28 08:15:31;;;;;;;7.68;5.40;;;;;;;6.33;100.00;102450.31;10389853;28;20497;-69
2022/03/28 08:20:31;;;;;;;7.32;5.05;;;;;;;6.41;100.00;102442.84;10408791;28;20041;-69
2022/03/28 08:25:32;;;;;;;8.43;5.10;;;;;;;6.54;100.00;102441.34;10382955;28;20037;-69
2022/03/28 08:30:34;;;;;;;6.20;4.43;;;;;;;6.74;100.00;102436.13;10375704;28;20033;-69
2022/03/28 08:35:36;;;;;;;9.88;4.95;;;;;;;6.70;100.00;102426.59;10380716;28;20065;-71
2022/03/28 08:40:37;;;;;;;8.88;5.85;;;;;;;6.89;100.00;102438.88;10405166;28;20117;-69
2022/03/28 08:45:41;;;;;;;8.43;5.93;;;;;;;6.91;100.00;102436.78;10391270;28;20037;-69
2022/03/28 08:50:43;;;;;;;9.63;6.15;;;;;;;6.98;100.00;102438.53;10365497;28;20021;-69
2022/03/28 08:55:44;;;;;;;9.77;5.85;;;;;;;7.12;100.00;102442.28;10376107;28;20049;-69
2022/03/28 09:00:45;;;;;;;9.35;5.75;;;;;;;7.35;100.00;102447.59;10375743;28;20057;-71
2022/03/28 09:05:49;;;;;;;8.95;5.90;;;;;;;7.33;100.00;102451.59;10365663;28;20034;-71
2022/03/28 09:10:49;;;;;;;8.90;6.00;;;;;;;7.44;100.00;102451.06;10369097;28;20024;-69
2022/03/28 09:15:57;;;;;;;7.30;5.65;;;;;;;7.55;100.00;102438.75;10369351;28;20053;-66
2022/03/28 09:21:09;;;;;;;8.88;6.60;;;;;;;7.72;100.00;102434.69;10386541;28;20040;-66
2022/03/28 09:26:20;;;;;;;8.70;6.03;;;;;;;7.89;100.00;102440.72;10370844;28;20065;-69
2022/03/28 09:31:24;;;;;;;10.52;7.57;;;;;;;7.99;100.00;102430.28;10387039;28;20069;-69
2022/03/28 09:36:51;;;;;;;9.18;7.25;;;;;;;8.05;100.00;102425.88;10383634;28;20030;-68
2022/03/28 09:42:08;;;;;;;9.43;6.55;;;;;;;8.03;100.00;102414.28;10372587;28;20044;-69
2022/03/28 09:47:13;;;;;;;7.90;6.13;;;;;;;8.07;100.00;102416.41;10386447;28;20026;-66
2022/03/28 09:52:18;;;;;;;11.05;6.53;;;;;;;7.95;100.00;102400.72;10366909;28;20075;-68
2022/03/28 09:57:26;;;;;;;8.90;6.47;;;;;;;8.31;100.00;102395.06;10369687;28;20052;-69
2022/03/28 10:02:26;;;;;;;11.82;7.72;;;;;;;8.72;100.00;102404.34;10383578;28;20033;-69
2022/03/28 10:07:27;;;;;;;11.48;7.00;;;;;;;8.91;100.00;102389.88;10375394;28;20041;-69
2022/03/28 10:12:28;;;;;;;13.20;6.60;;;;;;;9.16;100.00;102394.81;10369091;28;20429;-70
2022/03/28 10:17:30;;;;;;;10.27;6.90;;;;;;;9.07;100.00;102375.75;10381439;28;20046;-69
2022/03/28 10:22:37;;;;;;;9.50;6.88;;;;;;;9.20;100.00;102360.34;10360130;28;20026;-69
2022/03/28 10:27:38;;;;;;;9.52;6.90;;;;;;;9.48;100.00;102363.75;10376095;28;20030;-69
2022/03/28 10:32:39;;;;;;;10.13;7.00;;;;;;;9.63;100.00;102359.94;10374322;28;20026;-69
2022/03/28 10:37:48;;;;;;;9.50;7.28;;;;;;;10.03;100.00;102359.94;10381864;28;20038;-69
2022/03/28 10:43:00;;;;;;;10.55;7.53;;;;;;;10.20;100.00;102354.81;10432523;28;20124;-71
2022/03/28 10:48:00;;;;;;;13.25;7.40;;;;;;;10.30;100.00;102345.06;10400250;28;20148;-69
2022/03/28 10:53:30;;;;;;;12.05;7.63;;;;;;;10.48;100.00;102340.78;10415798;28;20037;-69
2022/03/28 10:58:42;;;;;;;11.25;7.15;;;;;;;10.42;100.00;102330.66;10399138;28;20025;-73
2022/03/28 11:03:44;;;;;;;11.68;7.72;;;;;;;10.18;100.00;102352.28;10370032;28;20508;-70
2022/03/28 11:08:58;;;;;;;11.75;8.65;;;;;;;10.37;100.00;102339.53;10391064;28;20136;-70
2022/03/28 11:14:03;;;;;;;12.65;7.22;;;;;;;10.59;100.00;102312.56;10373823;28;20077;-70
2022/03/28 11:19:30;;;;;;;10.55;7.72;;;;;;;10.96;100.00;102310.03;10390320;28;20517;-70
2022/03/28 11:24:58;;;;;;;9.50;7.47;;;;;;;11.20;100.00;102307.50;10373346;28;20026;-70
2022/03/28 11:30:10;;;;;;;9.10;7.78;;;;;;;11.24;100.00;102306.00;10390911;28;20084;-74
2022/03/28 11:35:13;;;;;;;14.23;8.35;;;;;;;11.58;100.00;102281.75;10422629;28;20030;-72
2022/03/28 11:40:14;;;;;;;14.50;9.20;;;;;;;10.95;100.00;102280.75;10397666;28;20033;-72
2022/03/28 11:45:14;;;;;;;10.95;8.63;;;;;;;11.47;100.00;102273.16;10366207;28;20478;-72
2022/03/28 11:50:16;;;;;;;12.93;8.93;;;;;;;12.00;100.00;102265.44;10374733;28;20389;-71
2022/03/28 11:55:18;;;;;;;11.25;9.57;;;;;;;12.70;100.00;102235.38;10392413;28;20097;-70
2022/03/28 12:00:19;;;;;;;13.98;9.60;;;;;;;12.82;100.00;102201.44;10390287;28;20502;-71
2022/03/28 12:05:44;;;;;;;14.05;9.70;;;;;;;13.07;100.00;102220.59;10391122;28;20068;-72
2022/03/28 12:10:51;;;;;;;12.68;8.85;;;;;;;13.43;100.00;102229.78;10389672;28;20089;-72
2022/03/28 12:15:53;;;;;;;12.93;9.32;;;;;;;14.87;100.00;102200.34;10406979;28;20033;-71
2022/03/28 12:20:54;;;;;;;10.25;8.60;;;;;;;16.04;91.37;102176.28;10394258;28;20050;-72
2022/03/28 12:25:59;;;;;;;12.45;8.98;;;;;;;16.17;86.50;102180.59;10388117;28;20092;-72
2022/03/28 12:31:00;;;;;;;12.60;8.93;;;;;;;15.78;87.46;102169.56;10448242;28;20032;-72
2022/03/28 12:36:10;;;;;;;13.60;9.40;;;;;;;14.58;88.39;102175.44;10399003;28;20037;-72
2022/03/28 12:41:13;;;;;;;13.20;9.55;;;;;;;13.48;95.23;102188.41;10427571;28;20029;-72
2022/03/28 12:46:15;;;;;;;13.55;10.30;;;;;;;12.79;100.00;102185.31;10399436;28;20790;-72
2022/03/28 12:51:35;;;;;;;13.32;10.48;;;;;;;12.70;100.00;102141.44;10423368;28;20034;-71
2022/03/28 12:56:42;;;;;;;16.45;11.13;;;;;;;12.83;100.00;102173.53;10422394;28;20025;-71
2022/03/28 13:01:42;;;;;;;16.98;11.55;;;;;;;12.81;100.00;102172.09;10440707;28;20033;-74
2022/03/28 13:06:49;;;;;;;17.67;11.68;;;;;;;12.65;100.00;102165.31;10421974;28;20044;-72
2022/03/28 13:11:50;;;;;;;15.02;11.93;;;;;;;12.70;100.00;102151.66;10435981;28;20444;-71
2022/03/28 13:17:07;;;;;;;17.42;12.20;;;;;;;13.55;100.00;102139.31;10419386;28;20109;-71
2022/03/28 13:22:09;;;;;;;16.83;12.93;;;;;;;13.21;100.00;102128.03;10420295;28;20485;-71
2022/03/28 13:32:29;;;;;;;18.00;12.73;;;;;;;13.01;100.00;102117.31;10409918;28;20065;-72
2022/03/28 13:37:29;;;;;;;16.17;12.55;;;;;;;12.93;100.00;102124.03;10437171;28;20045;-72
2022/03/28 13:42:30;;;;;;;18.55;12.90;;;;;;;12.63;100.00;102112.22;10363750;28;20045;-71
2022/03/28 13:47:30;;;;;;;16.85;12.38;;;;;;;12.43;100.00;102105.13;10361270;28;20510;-72
2022/03/28 13:52:31;;;;;;;19.27;14.00;;;;;;;12.46;100.00;102109.31;10377434;28;20417;-72
2022/03/28 13:57:31;;;;;;;20.45;12.38;;;;;;;12.37;100.00;102110.75;10355684;28;20374;-72
2022/03/28 14:02:32;;;;;;;20.88;13.25;;;;;;;11.32;100.00;102016.22;10375687;28;20042;-73
2022/03/28 14:07:33;;;;;;;20.35;13.00;;;;;;;11.74;100.00;102104.59;10359940;28;20049;-71
2022/03/28 14:12:35;;;;;;;18.30;12.95;;;;;;;10.87;100.00;102107.44;10376243;28;20045;-72
2022/03/28 14:17:37;;;;;;;22.40;13.32;;;;;;;10.88;100.00;102098.13;10393826;28;20101;-70
2022/03/28 14:22:37;;;;;;;23.52;12.63;;;;;;;10.84;100.00;102097.72;10393250;28;20037;-70
2022/03/28 14:27:38;;;;;;;19.77;12.93;;;;;;;11.21;100.00;102077.66;10358779;28;20053;-70
2022/03/28 14:32:38;;;;;;;20.02;12.95;;;;;;;11.25;100.00;102079.72;10391628;28;20301;-71
2022/03/28 14:37:39;;;;;;;25.80;12.95;;;;;;;11.51;100.00;102070.31;10358612;28;20196;-70
2022/03/28 14:42:40;;;;;;;20.77;14.98;;;;;;;11.46;100.00;102050.84;10393969;28;20057;-70
2022/03/28 14:47:40;;;;;;;27.00;16.83;;;;;;;11.26;100.00;102066.78;10391223;28;20037;-70
2022/03/28 14:52:42;;;;;;;22.20;15.52;;;;;;;11.05;100.00;102060.63;10436978;28;20090;-71
2022/03/28 14:57:43;;;;;;;22.95;13.70;;;;;;;10.99;100.00;102064.31;10473134;28;20037;-69
2022/03/28 15:02:43;;;;;;;17.30;12.63;;;;;;;10.98;100.00;102042.50;10435144;28;20030;-71
2022/03/28 15:07:44;;;;;;;20.92;12.27;;;;;;;10.63;100.00;102041.16;10398657;28;20104;-71
2022/03/28 15:12:44;;;;;;;16.55;11.43;;;;;;;10.35;100.00;102044.34;10357498;28;20057;-70
2022/03/28 15:17:45;;;;;;;14.82;10.38;;;;;;;10.27;100.00;102042.72;10391111;28;20053;-70
2022/03/28 15:22:45;;;;;;;17.73;10.35;;;;;;;10.15;100.00;102027.97;10384365;28;20025;-71
2022/03/28 15:27:46;;;;;;;16.60;11.55;;;;;;;10.07;100.00;102036.50;10410190;28;20038;-69
2022/03/28 15:32:46;;;;;;;17.20;11.57;;;;;;;9.76;100.00;102024.44;10391785;28;20034;-72
2022/03/28 15:37:47;;;;;;;17.38;11.02;;;;;;;9.77;100.00;102025.28;10389931;28;20049;-71
2022/03/28 15:42:47;;;;;;;19.58;11.75;;;;;;;9.86;100.00;102035.78;10417423;28;20045;-70
2022/03/28 15:47:48;;;;;;;18.90;10.77;;;;;;;10.08;100.00;102008.75;10387494;28;20064;-69
2022/03/28 15:52:48;;;;;;;16.30;10.75;;;;;;;10.17;100.00;102008.47;10386842;28;20482;-71
2022/03/28 15:57:49;;;;;;;17.65;11.80;;;;;;;9.99;100.00;101995.50;10400280;28;20084;-75
2022/03/28 16:02:49;;;;;;;15.18;11.00;;;;;;;9.91;100.00;101999.38;10400696;28;20490;-71
2022/03/28 16:07:50;;;;;;;17.17;11.68;;;;;;;9.70;100.00;101997.81;10385575;28;20053;-70
2022/03/28 16:12:50;;;;;;;22.30;14.43;;;;;;;9.21;100.00;101994.66;10386587;28;20045;-70
2022/03/28 16:17:51;;;;;;;25.73;15.13;;;;;;;8.88;100.00;101997.53;10399147;28;20053;-70
2022/03/28 16:22:51;;;;;;;24.67;15.65;;;;;;;8.49;100.00;101988.31;10384019;28;20033;-70
2022/03/28 16:27:53;;;;;;;25.63;15.63;;;;;;;8.59;100.00;101996.13;10402867;28;20045;-70
2022/03/28 16:32:54;;;;;;;26.25;18.08;;;;;;;8.50;100.00;101975.47;10397123;28;20029;-70
2022/03/28 16:37:54;;;;;;;21.92;14.23;;;;;;;8.59;100.00;101974.16;10416451;28;20029;-71
2022/03/28 16:42:55;;;;;;;21.92;14.32;;;;;;;8.41;100.00;101961.97;10369471;28;20884;-69
2022/03/28 16:47:55;;;;;;;18.33;12.57;;;;;;;8.35;100.00;101942.72;10401269;28;20041;-70
2022/03/28 16:52:56;;;;;;;20.30;13.57;;;;;;;8.32;100.00;101941.25;10384044;28;20049;-70
2022/03/28 16:57:57;;;;;;;20.52;12.90;;;;;;;8.22;100.00;101947.16;10400293;28;20026;-70
2022/03/28 17:02:57;;;;;;;20.45;13.00;;;;;;;8.18;100.00;101945.91;10415371;28;20033;-70
2022/03/28 17:07:59;;;;;;;21.20;13.80;;;;;;;8.10;100.00;101940.63;10402049;28;20038;-69
2022/03/28 17:13:00;;;;;;;21.65;13.98;;;;;;;7.95;100.00;101934.53;10429570;28;20551;-69
2022/03/28 17:18:01;;;;;;;22.35;14.75;;;;;;;7.63;100.00;101921.44;10412562;28;20049;-69
2022/03/28 17:23:01;;;;;;;21.17;13.57;;;;;;;7.80;100.00;101945.69;10412437;28;20048;-69
2022/03/28 17:28:02;;;;;;;25.60;14.68;;;;;;;7.59;100.00;101933.03;10412163;28;20079;-70
2022/03/28 17:33:07;;;;;;;20.75;14.13;;;;;;;7.63;100.00;101948.00;10408038;28;20045;-69
2022/03/28 17:38:08;;;;;;;25.27;14.77;;;;;;;7.59;100.00;101933.88;10410330;28;20044;-69
2022/03/28 17:43:10;;;;;;;23.80;15.25;;;;;;;7.51;100.00;101945.03;10413067;28;20032;-69
2022/03/28 17:48:10;;;;;;;24.25;15.52;;;;;;;7.40;100.00;101945.63;10396320;28;20524;-69
2022/03/28 17:53:11;;;;;;;31.48;16.50;;;;;;;7.30;100.00;101935.06;10411092;28;20049;-69
2022/03/28 17:58:11;;;;;;;29.80;17.05;;;;;;;7.25;100.00;101932.09;10395291;28;20500;-69
2022/03/28 18:03:12;;;;;;;33.25;17.65;;;;;;;7.33;100.00;101936.53;10395590;28;20108;-69
2022/03/28 18:08:12;;;;;;;27.65;16.35;;;;;;;7.20;100.00;101919.03;10428412;28;20063;-69
2022/03/28 18:13:13;;;;;;;26.17;14.80;;;;;;;7.19;100.00;101916.47;10411613;28;20071;-70
2022/03/28 18:18:13;;;;;;;25.50;15.88;;;;;;;7.25;100.00;101929.34;10410610;28;20073;-69
2022/03/28 18:23:15;;;;;;;29.17;14.70;;;;;;;7.28;100.00;101945.38;10387420;28;20060;-69
2022/03/28 18:28:16;;;;;;;27.10;16.52;;;;;;;7.24;100.00;101949.59;10420495;28;20029;-69
2022/03/28 18:33:19;;;;;;;29.83;17.33;;;;;;;7.11;100.00;101933.09;10387948;28;20393;-69
2022/03/28 18:38:20;;;;;;;29.50;16.92;;;;;;;7.17;100.00;101957.78;10404641;28;20047;-70
2022/03/28 18:43:22;;;;;;;28.77;15.98;;;;;;;7.02;100.00;101946.13;10388245;28;20040;-70
2022/03/28 18:48:22;;;;;;;31.33;18.10;;;;;;;7.04;100.00;101944.88;10421183;28;20036;-70
2022/03/28 18:53:24;;;;;;;33.95;17.83;;;;;;;6.91;100.00;101933.88;10388180;28;20060;-69
2022/03/28 18:58:24;;;;;;;33.38;18.30;;;;;;;6.89;100.00;101946.94;10387835;28;20065;-69
2022/03/28 19:03:25;;;;;;;34.28;17.05;;;;;;;6.89;100.00;101946.94;10420227;28;20033;-69
2022/03/28 19:08:25;;;;;;;34.15;18.75;;;;;;;6.75;100.00;101940.53;10404188;28;20033;-69
2022/03/28 19:13:26;;;;;;;36.45;18.40;;;;;;;6.82;100.00;101940.56;10404793;28;20072;-69
2022/03/28 19:18:27;;;;;;;39.95;20.85;;;;;;;6.83;100.00;101942.25;10420450;28;20099;-70
2022/03/28 19:23:27;;;;;;;46.20;22.95;;;;;;;6.76;100.00;101922.22;10387271;28;20022;-70
2022/03/28 19:28:28;;;;;;;47.58;23.92;;;;;;;6.69;100.00;101910.41;10357261;28;20037;-70
2022/03/28 19:33:28;;;;;;;43.13;22.60;;;;;;;6.84;100.00;101916.56;10339961;28;20598;-69
2022/03/28 19:38:29;;;;;;;40.97;21.58;;;;;;;6.74;100.00;101910.63;10357125;28;20478;-70
2022/03/28 19:43:31;;;;;;;41.50;21.98;;;;;;;6.82;100.00;101896.75;10390897;28;20034;-70
2022/03/28 19:48:33;;;;;;;36.25;19.02;;;;;;;6.74;100.00;101900.53;10373063;28;20045;-70
2022/03/28 19:53:34;;;;;;;39.92;20.25;;;;;;;6.79;100.00;101903.50;10339621;28;20040;-70
2022/03/28 19:58:38;;;;;;;41.58;20.33;;;;;;;6.76;100.00;101887.50;10389533;28;20026;-70
2022/03/28 20:03:38;;;;;;;40.90;22.70;;;;;;;6.80;100.00;101898.84;10371946;28;20033;-70
2022/03/28 20:08:39;;;;;;;46.55;26.73;;;;;;;6.71;100.00;101889.16;10428804;28;20033;-70
2022/03/28 20:13:39;;;;;;;51.75;27.15;;;;;;;6.64;100.00;101868.06;10429976;28;20052;-69
2022/03/28 20:18:40;;;;;;;43.72;23.85;;;;;;;6.67;100.00;101872.28;10409607;28;20029;-69
2022/03/28 20:23:41;;;;;;;43.13;24.42;;;;;;;6.61;100.00;101863.00;10411974;28;20401;-69
2022/03/28 20:28:41;;;;;;;42.15;22.95;;;;;;;6.64;100.00;101870.81;10395106;28;20041;-69
2022/03/28 20:33:42;;;;;;;35.05;21.60;;;;;;;6.62;100.00;101880.28;10408814;28;20032;-69
2022/03/28 20:38:42;;;;;;;36.10;20.75;;;;;;;6.64;100.00;101864.50;10378673;28;20140;-69
2022/03/28 20:43:43;;;;;;;37.50;22.83;;;;;;;6.57;100.00;101866.34;10376134;28;20026;-70
2022/03/28 20:48:43;;;;;;;35.00;22.38;;;;;;;6.56;100.00;101868.25;10427684;28;20034;-69
2022/03/28 20:53:44;;;;;;;34.90;21.35;;;;;;;6.58;100.00;101879.84;10427723;28;20041;-70
2022/03/28 20:58:44;;;;;;;29.30;19.17;;;;;;;6.45;100.00;101860.63;10388781;28;20513;-70
2022/03/28 21:03:45;;;;;;;27.77;18.05;;;;;;;6.48;100.00;101868.41;10411326;28;20466;-70
2022/03/28 21:08:45;;;;;;;27.95;18.45;;;;;;;6.48;100.00;101857.47;10411808;28;20460;-70
2022/03/28 21:13:46;;;;;;;28.45;17.65;;;;;;;6.46;100.00;101854.94;10429452;28;20433;-70
2022/03/28 21:18:46;;;;;;;30.52;18.92;;;;;;;6.45;100.00;101846.94;10411782;28;20398;-69
2022/03/28 21:23:47;;;;;;;29.17;18.30;;;;;;;6.51;100.00;101846.13;10410799;28;20026;-71
2022/03/28 21:28:47;;;;;;;32.42;20.63;;;;;;;6.44;100.00;101834.31;10410388;28;20033;-70
2022/03/28 21:33:48;;;;;;;36.53;22.90;;;;;;;6.39;100.00;101825.88;10394294;28;20026;-70
2022/03/28 21:38:48;;;;;;;34.80;21.83;;;;;;;6.30;100.00;101810.69;10427488;28;20038;-69
2022/03/28 21:43:49;;;;;;;35.15;21.50;;;;;;;6.32;100.00;101816.78;10394261;28;20049;-69
2022/03/28 21:48:49;;;;;;;40.35;24.85;;;;;;;6.30;100.00;101805.19;10410400;28;20029;-70
2022/03/28 21:53:50;;;;;;;35.03;22.88;;;;;;;6.22;100.00;101787.94;10426815;28;20037;-70
2022/03/28 21:58:50;;;;;;;30.63;19.30;;;;;;;6.24;100.00;101799.50;10401323;28;20037;-70
2022/03/28 22:03:52;;;;;;;36.25;21.08;;;;;;;6.26;100.00;101804.75;10418181;28;20501;-69
2022/03/28 22:08:53;;;;;;;33.60;19.65;;;;;;;6.15;100.00;101797.97;10419022;28;20046;-69
2022/03/28 22:13:54;;;;;;;39.50;23.45;;;;;;;6.23;100.00;101806.00;10401525;28;20053;-70
2022/03/28 22:18:54;;;;;;;37.05;22.00;;;;;;;6.24;100.00;101802.25;10417275;28;20034;-70
2022/03/28 22:23:55;;;;;;;44.53;25.70;;;;;;;6.29;100.00;101825.41;10416921;28;20056;-69
2022/03/28 22:28:55;;;;;;;47.08;27.67;;;;;;;6.31;100.00;101826.06;10387788;28;20041;-70
2022/03/28 22:33:56;;;;;;;45.70;26.58;;;;;;;6.22;100.00;101815.28;10359850;28;20033;-70
2022/03/28 22:38:56;;;;;;;44.58;25.08;;;;;;;6.27;100.00;101822.88;10376342;28;20030;-69
2022/03/28 22:43:57;;;;;;;43.10;23.75;;;;;;;5.35;100.00;101676.41;10359818;28;20030;-69
2022/03/28 22:48:58;;;;;;;45.28;25.45;;;;;;;6.21;100.00;101791.69;10405568;28;20563;-69